createdAt,value
2018-11-28T00:00:31.116Z,14.00
2018-11-28T00:03:02.269Z,14.95
2018-11-28T00:05:31.467Z,15.10
2018-11-28T00:08:00.593Z,14.67
2018-11-28T00:10:29.747Z,14.90
2018-11-28T00:12:58.858Z,14.05
2018-11-28T00:15:28.324Z,15.30
2018-11-28T00:17:57.554Z,14.10
2018-11-28T00:20:26.651Z,13.75
2018-11-28T00:22:55.754Z,13.58
2018-11-28T00:25:24.985Z,13.78
2018-11-28T00:27:54.282Z,14.33
2018-11-28T00:30:25.990Z,13.38
2018-11-28T00:32:55.119Z,14.43
2018-11-28T00:35:24.928Z,13.50
2018-11-28T00:37:54.040Z,12.75
2018-11-28T00:40:23.763Z,12.68
2018-11-28T00:42:53.053Z,12.77
2018-11-28T00:45:23.219Z,13.38
2018-11-28T00:47:52.570Z,13.83
2018-11-28T00:50:23.880Z,13.80
2018-11-28T00:52:53.040Z,13.20
2018-11-28T00:55:22.216Z,13.68
2018-11-28T00:57:51.581Z,13.72
2018-11-28T01:01:26.335Z,12.78
2018-11-28T01:03:55.535Z,11.97
2018-11-28T01:06:24.619Z,13.22
2018-11-28T01:08:53.822Z,14.75
2018-11-28T01:11:22.891Z,14.00
2018-11-28T01:13:52.018Z,13.38
2018-11-28T01:16:21.079Z,13.28
2018-11-28T01:18:50.303Z,14.13
2018-11-28T01:21:19.294Z,14.40
2018-11-28T01:23:48.385Z,13.35
2018-11-28T01:26:17.590Z,14.07
2018-11-28T01:28:46.829Z,14.85
2018-11-28T01:31:15.751Z,13.33
2018-11-28T01:33:44.986Z,13.30
2018-11-28T01:36:14.075Z,12.78
2018-11-28T01:38:43.271Z,13.95
2018-11-28T01:41:12.512Z,15.33
2018-11-28T01:43:41.767Z,14.05
2018-11-28T01:46:10.952Z,14.45
2018-11-28T01:48:40.063Z,14.65
2018-11-28T01:51:09.155Z,12.98
2018-11-28T01:53:38.233Z,14.03
2018-11-28T01:56:07.463Z,14.05
2018-11-28T01:58:36.707Z,14.75
2018-11-28T02:01:06.173Z,14.68
2018-11-28T02:03:35.423Z,13.83
2018-11-28T02:06:04.663Z,13.28
2018-11-28T02:08:33.739Z,13.13
2018-11-28T02:11:02.818Z,13.00
2018-11-28T02:13:32.048Z,13.83
2018-11-28T02:16:01.187Z,14.43
2018-11-28T02:18:30.207Z,14.45
2018-11-28T02:20:59.302Z,13.65
2018-11-28T02:23:28.423Z,13.90
2018-11-28T02:25:57.720Z,13.70
2018-11-28T02:28:26.787Z,13.98
2018-11-28T02:30:56.219Z,14.30
2018-11-28T02:33:25.382Z,13.48
2018-11-28T02:35:54.616Z,13.20
2018-11-28T02:38:23.907Z,14.35
2018-11-28T02:40:52.996Z,13.15
2018-11-28T02:43:22.208Z,12.95
2018-11-28T02:46:02.228Z,12.47
2018-11-28T02:48:31.456Z,13.50
2018-11-28T02:51:00.549Z,14.30
2018-11-28T02:53:29.731Z,13.20
2018-11-28T02:55:58.847Z,13.53
2018-11-28T02:58:27.913Z,13.22
2018-11-28T03:00:57.037Z,12.85
2018-11-28T03:03:26.128Z,13.53
2018-11-28T03:05:55.399Z,13.03
2018-11-28T03:08:24.412Z,12.85
2018-11-28T03:10:53.583Z,13.37
2018-11-28T03:13:22.839Z,12.60
2018-11-28T03:15:54.828Z,12.78
2018-11-28T03:18:24.541Z,12.00
2018-11-28T03:20:53.779Z,12.13
2018-11-28T03:23:22.965Z,12.25
2018-11-28T03:25:52.197Z,12.73
2018-11-28T03:28:21.343Z,13.28
2018-11-28T03:30:50.484Z,12.55
2018-11-28T03:33:19.575Z,12.98
2018-11-28T03:35:48.875Z,12.58
2018-11-28T03:38:18.084Z,12.80
2018-11-28T03:40:47.243Z,13.03
2018-11-28T03:43:16.358Z,11.80
2018-11-28T03:45:45.442Z,12.50
2018-11-28T03:48:14.729Z,12.50
2018-11-28T03:50:43.849Z,12.03
2018-11-28T03:53:12.907Z,12.33
2018-11-28T03:55:42.044Z,12.47
2018-11-28T03:58:11.213Z,12.33
2018-11-28T04:00:40.440Z,12.90
2018-11-28T04:03:09.740Z,12.82
2018-11-28T04:05:38.995Z,12.28
2018-11-28T04:08:08.100Z,12.03
2018-11-28T04:10:37.183Z,12.07
2018-11-28T04:13:06.419Z,11.90
2018-11-28T04:15:35.475Z,12.78
2018-11-28T04:18:04.827Z,13.08
2018-11-28T04:20:33.956Z,13.15
2018-11-28T04:23:02.974Z,13.50
2018-11-28T04:25:32.204Z,13.72
2018-11-28T04:28:01.284Z,13.32
2018-11-28T04:30:30.404Z,13.32
2018-11-28T04:32:59.591Z,13.58
2018-11-28T04:35:28.657Z,11.63
2018-11-28T04:37:57.774Z,12.78
2018-11-28T04:40:26.849Z,13.38
2018-11-28T04:42:55.968Z,12.80
2018-11-28T04:45:25.530Z,13.07
2018-11-28T04:47:55.695Z,12.53
2018-11-28T04:50:24.794Z,11.60
2018-11-28T04:52:53.867Z,12.25
2018-11-28T04:55:22.970Z,12.75
2018-11-28T04:57:52.298Z,12.80
2018-11-28T05:00:24.560Z,12.50
2018-11-28T05:02:54.664Z,13.83
2018-11-28T05:05:23.860Z,13.53
2018-11-28T05:07:53.429Z,12.95
2018-11-28T05:10:25.052Z,14.13
2018-11-28T05:12:54.749Z,14.20
2018-11-28T05:15:26.711Z,12.58
2018-11-28T05:17:55.895Z,13.05
2018-11-28T05:20:27.143Z,12.83
2018-11-28T05:22:56.251Z,13.25
2018-11-28T05:25:26.208Z,14.30
2018-11-28T05:27:56.268Z,12.80
2018-11-28T05:30:26.187Z,13.80
2018-11-28T05:32:55.587Z,15.30
2018-11-28T05:35:31.923Z,15.25
2018-11-28T05:38:01.356Z,15.28
2018-11-28T05:40:30.434Z,14.68
2018-11-28T05:42:59.549Z,15.00
2018-11-28T05:45:28.615Z,16.50
2018-11-28T05:47:57.733Z,16.30
2018-11-28T05:50:26.923Z,13.65
2018-11-28T05:52:56.020Z,13.78
2018-11-28T05:55:25.119Z,14.13
2018-11-28T05:57:54.075Z,15.40
2018-11-28T06:00:30.871Z,15.38
2018-11-28T06:03:00.051Z,16.15
2018-11-28T06:05:29.174Z,17.02
2018-11-28T06:07:58.271Z,18.10
2018-11-28T06:10:27.458Z,16.85
2018-11-28T06:12:56.607Z,17.70
2018-11-28T06:15:25.842Z,16.75
2018-11-28T06:17:54.964Z,17.00
2018-11-28T06:20:24.045Z,17.37
2018-11-28T06:22:53.158Z,16.80
2018-11-28T06:25:22.459Z,17.52
2018-11-28T06:27:51.631Z,18.27
2018-11-28T06:30:21.367Z,17.27
2018-11-28T06:32:51.457Z,17.40
2018-11-28T06:35:19.867Z,17.35
2018-11-28T06:37:49.151Z,16.52
2018-11-28T06:40:23.959Z,18.17
2018-11-28T06:42:49.004Z,20.60
2018-11-28T06:45:19.199Z,24.10
2018-11-28T06:47:48.500Z,26.15
2018-11-28T06:50:19.543Z,27.02
2018-11-28T06:52:51.503Z,25.67
2018-11-28T06:55:21.523Z,28.38
2018-11-28T06:57:50.828Z,29.80
2018-11-28T07:00:23.512Z,28.65
2018-11-28T07:02:53.412Z,26.68
2018-11-28T07:05:23.227Z,26.90
2018-11-28T07:07:52.813Z,25.52
2018-11-28T07:10:22.707Z,27.42
2018-11-28T07:12:52.035Z,27.80
2018-11-28T07:15:23.262Z,32.17
2018-11-28T07:17:52.386Z,31.77
2018-11-28T07:20:21.568Z,29.42
2018-11-28T07:22:50.784Z,29.07
2018-11-28T07:25:20.255Z,32.30
2018-11-28T07:27:49.795Z,29.23
2018-11-28T07:30:23.406Z,28.67
2018-11-28T07:32:54.850Z,28.42
2018-11-28T07:35:24.073Z,27.58
2018-11-28T07:37:53.231Z,28.10
2018-11-28T07:40:23.436Z,25.62
2018-11-28T07:43:02.491Z,25.88
2018-11-28T07:45:31.900Z,25.85
2018-11-28T07:48:01.173Z,25.57
2018-11-28T07:50:30.283Z,27.15
2018-11-28T07:52:59.358Z,26.87
2018-11-28T07:55:28.578Z,30.23
2018-11-28T07:57:57.692Z,28.52
2018-11-28T08:00:26.944Z,28.02
2018-11-28T08:02:56.178Z,27.85
2018-11-28T08:05:25.584Z,26.75
2018-11-28T08:07:54.982Z,26.42
2018-11-28T08:10:24.953Z,26.85
2018-11-28T08:12:55.215Z,27.30
2018-11-28T08:15:24.411Z,26.77
2018-11-28T08:17:53.505Z,28.15
2018-11-28T08:20:22.560Z,26.85
2018-11-28T08:22:51.803Z,25.37
2018-11-28T08:25:20.968Z,27.53
2018-11-28T08:27:50.707Z,24.43
2018-11-28T08:30:21.632Z,26.52
2018-11-28T08:32:50.859Z,25.27
2018-11-28T08:35:20.246Z,25.17
2018-11-28T08:37:49.555Z,25.12
2018-11-28T08:40:20.036Z,27.07
2018-11-28T08:42:49.263Z,24.72
2018-11-28T08:45:19.501Z,25.90
2018-11-28T08:47:49.604Z,28.42
2018-11-28T08:50:19.931Z,28.07
2018-11-28T08:52:49.169Z,29.70
2018-11-28T08:55:18.535Z,29.75
2018-11-28T08:57:47.812Z,29.02
2018-11-28T09:00:18.907Z,28.77
2018-11-28T09:02:49.099Z,29.87
2018-11-28T09:05:18.195Z,26.97
2018-11-28T09:07:47.354Z,27.45
2018-11-28T09:10:20.119Z,28.10
2018-11-28T09:12:50.054Z,27.47
2018-11-28T09:15:22.066Z,27.82
2018-11-28T09:17:51.250Z,27.90
2018-11-28T09:20:20.447Z,27.83
2018-11-28T09:22:49.719Z,28.57
2018-11-28T09:25:19.344Z,27.35
2018-11-28T09:27:50.668Z,26.17
2018-11-28T09:30:20.504Z,28.57
2018-11-28T09:32:50.198Z,26.62
2018-11-28T09:35:19.619Z,27.70
2018-11-28T09:37:48.597Z,28.17
2018-11-28T09:40:18.839Z,28.30
2018-11-28T09:42:48.291Z,29.52
2018-11-28T09:45:18.351Z,26.57
2018-11-28T09:47:47.522Z,27.77
2018-11-28T09:50:19.628Z,29.18
2018-11-28T09:52:48.683Z,27.77
2018-11-28T09:55:18.731Z,28.37
2018-11-28T09:57:48.038Z,28.30
2018-11-28T10:00:19.592Z,31.37
2018-11-28T10:02:49.503Z,29.80
2018-11-28T10:05:19.860Z,29.35
2018-11-28T10:07:49.132Z,28.10
2018-11-28T10:10:18.292Z,28.73
2018-11-28T10:12:47.403Z,27.77
2018-11-28T10:15:19.567Z,28.00
2018-11-28T10:17:48.754Z,25.62
2018-11-28T10:20:18.487Z,27.98
2018-11-28T10:22:48.128Z,25.97
2018-11-28T10:25:20.953Z,26.73
2018-11-28T10:27:54.275Z,25.25
2018-11-28T10:30:24.495Z,25.77
2018-11-28T10:32:54.092Z,25.60
2018-11-28T10:35:23.407Z,26.15
2018-11-28T10:37:52.710Z,26.65
2018-11-28T10:40:22.607Z,27.05
2018-11-28T10:42:53.052Z,27.20
2018-11-28T10:45:23.331Z,26.97
2018-11-28T10:47:52.676Z,29.45
2018-11-28T10:50:21.996Z,28.45
2018-11-28T10:52:51.376Z,29.20
2018-11-28T10:55:24.309Z,31.52
2018-11-28T10:57:53.654Z,31.73
2018-11-28T11:00:30.552Z,29.37
2018-11-28T11:03:04.863Z,30.27
2018-11-28T11:05:39.302Z,27.87
2018-11-28T11:08:13.831Z,28.17
2018-11-28T11:10:48.048Z,29.70
2018-11-28T11:13:22.542Z,29.90
2018-11-28T11:15:56.478Z,31.68
2018-11-28T11:18:26.083Z,29.77
2018-11-28T11:20:55.443Z,29.42
2018-11-28T11:23:24.675Z,30.90
2018-11-28T11:25:54.146Z,30.45
2018-11-28T11:28:23.247Z,29.75
2018-11-28T11:30:52.540Z,30.65
2018-11-28T11:33:21.815Z,30.75
2018-11-28T11:35:51.041Z,31.42
2018-11-28T11:38:20.239Z,32.60
2018-11-28T11:40:49.407Z,29.98
2018-11-28T11:43:18.640Z,31.95
2018-11-28T11:45:47.795Z,30.77
2018-11-28T11:48:16.976Z,32.75
2018-11-28T11:50:46.128Z,30.17
2018-11-28T11:53:15.331Z,30.70
2018-11-28T11:55:44.436Z,29.60
2018-11-28T11:58:13.551Z,29.98
2018-11-28T12:00:44.066Z,29.98
2018-11-28T12:03:14.330Z,30.60
2018-11-28T12:05:47.343Z,28.75
2018-11-28T12:08:16.439Z,29.80
2018-11-28T12:10:45.676Z,27.93
2018-11-28T12:13:14.868Z,29.02
2018-11-28T12:15:44.220Z,30.52
2018-11-28T12:18:13.356Z,32.03
2018-11-28T12:21:01.083Z,32.75
2018-11-28T12:23:30.359Z,53.52
2018-11-28T12:25:59.460Z,32.20
2018-11-28T12:28:28.523Z,30.30
2018-11-28T12:30:57.648Z,31.40
2018-11-28T12:33:26.714Z,32.03
2018-11-28T12:35:55.842Z,31.37
2018-11-28T12:38:25.155Z,32.53
2018-11-28T12:40:54.359Z,32.67
2018-11-28T12:43:23.515Z,32.40
2018-11-28T12:45:52.772Z,30.92
2018-11-28T12:48:22.031Z,34.55
2018-11-28T12:50:51.199Z,31.93
2018-11-28T12:53:20.428Z,30.48
2018-11-28T12:55:49.726Z,31.00
2018-11-28T12:58:20.155Z,31.60
2018-11-28T13:00:49.444Z,32.10
2018-11-28T13:03:19.387Z,33.00
2018-11-28T13:05:48.770Z,32.98
2018-11-28T13:08:18.036Z,33.23
2018-11-28T13:10:47.254Z,30.45
2018-11-28T13:13:16.331Z,31.30
2018-11-28T13:15:45.563Z,33.28
2018-11-28T13:18:14.661Z,32.88
2018-11-28T13:20:44.044Z,32.50
2018-11-28T13:23:14.297Z,33.37
2018-11-28T13:25:43.492Z,34.85
2018-11-28T13:28:12.691Z,33.40
2018-11-28T13:30:41.868Z,33.92
2018-11-28T13:33:10.939Z,33.30
2018-11-28T13:35:40.067Z,32.10
2018-11-28T13:38:10.499Z,32.85
2018-11-28T13:40:39.582Z,34.70
2018-11-28T13:43:08.846Z,32.40
2018-11-28T13:45:49.354Z,34.03
2018-11-28T13:48:18.711Z,32.88
2018-11-28T13:50:47.940Z,36.83
2018-11-28T13:53:18.164Z,33.55
2018-11-28T13:56:57.398Z,34.48
2018-11-28T13:58:26.081Z,33.80
2018-11-28T14:00:55.139Z,33.88
2018-11-28T14:03:24.383Z,36.05
2018-11-28T14:05:53.435Z,33.98
2018-11-28T14:08:22.562Z,33.92
2018-11-28T14:10:51.984Z,33.00
2018-11-28T14:13:21.382Z,31.97
2018-11-28T14:15:50.682Z,33.75
2018-11-28T14:18:20.535Z,34.30
2018-11-28T14:20:49.896Z,33.55
2018-11-28T14:23:19.260Z,32.85
2018-11-28T14:25:48.535Z,35.68
2018-11-28T14:28:17.681Z,35.40
2018-11-28T14:30:47.347Z,37.05
2018-11-28T14:33:16.704Z,37.88
2018-11-28T14:35:45.965Z,36.77
2018-11-28T14:38:15.083Z,35.38
2018-11-28T14:40:44.275Z,38.57
2018-11-28T14:43:13.475Z,36.93
2018-11-28T14:45:42.575Z,41.13
2018-11-28T14:48:11.639Z,40.83
2018-11-28T14:50:40.759Z,41.20
2018-11-28T14:53:09.867Z,47.88
2018-11-28T14:55:40.185Z,38.15
2018-11-28T14:58:10.720Z,38.73
2018-11-28T15:00:39.808Z,37.15
2018-11-28T15:03:17.100Z,39.07
2018-11-28T15:05:59.609Z,36.27
2018-11-28T15:08:28.971Z,38.23
2018-11-28T15:11:00.460Z,36.20
2018-11-28T15:13:29.651Z,37.35
2018-11-28T15:15:58.747Z,37.03
2018-11-28T15:18:27.938Z,37.67
2018-11-28T15:20:57.020Z,35.95
2018-11-28T15:23:26.212Z,34.48
2018-11-28T15:25:55.540Z,33.45
2018-11-28T15:28:24.803Z,38.35
2018-11-28T15:30:54.051Z,34.70
2018-11-28T15:33:23.233Z,34.20
2018-11-28T15:35:52.403Z,32.98
2018-11-28T15:38:21.659Z,37.88
2018-11-28T15:40:50.816Z,34.83
2018-11-28T15:43:19.913Z,35.23
2018-11-28T15:45:49.306Z,35.63
2018-11-28T15:48:18.519Z,36.68
2018-11-28T15:50:47.798Z,34.13
2018-11-28T15:53:17.011Z,35.38
2018-11-28T15:55:46.270Z,35.03
2018-11-28T15:58:15.380Z,34.78
2018-11-28T16:00:44.504Z,36.25
2018-11-28T16:03:13.579Z,36.10
2018-11-28T16:05:42.490Z,36.35
2018-11-28T16:08:11.565Z,30.52
2018-11-28T16:10:42.254Z,32.53
2018-11-28T16:13:11.915Z,32.10
2018-11-28T16:15:44.904Z,31.00
2018-11-28T16:18:14.102Z,32.85
2018-11-28T16:20:43.224Z,35.68
2018-11-28T16:23:12.415Z,29.60
2018-11-28T16:25:41.575Z,28.50
2018-11-28T16:28:10.896Z,30.17
2018-11-28T16:30:39.991Z,29.75
2018-11-28T16:33:09.343Z,28.77
2018-11-28T16:35:38.798Z,28.57
2018-11-28T16:38:08.267Z,30.43
2018-11-28T16:40:37.390Z,33.87
2018-11-28T16:43:06.800Z,32.13
2018-11-28T16:45:36.007Z,31.35
2018-11-28T16:48:05.405Z,32.05
2018-11-28T16:50:34.580Z,31.45
2018-11-28T16:53:03.797Z,31.77
2018-11-28T16:55:32.839Z,33.20
2018-11-28T16:58:02.087Z,32.08
2018-11-28T17:00:32.112Z,34.98
2018-11-28T17:03:01.307Z,32.45
2018-11-28T17:05:30.684Z,31.53
2018-11-28T17:07:59.772Z,31.87
2018-11-28T17:10:29.703Z,31.45
2018-11-28T17:12:59.622Z,32.10
2018-11-28T17:15:28.707Z,31.75
2018-11-28T17:17:57.823Z,31.73
2018-11-28T17:20:28.126Z,29.85
2018-11-28T17:22:58.147Z,30.62
2018-11-28T17:25:29.179Z,32.70
2018-11-28T17:27:58.386Z,33.10
2018-11-28T17:30:28.401Z,33.65
2018-11-28T17:32:57.675Z,32.95
2018-11-28T17:35:26.912Z,30.32
2018-11-28T17:38:59.399Z,31.50
2018-11-28T17:41:28.456Z,29.87
2018-11-28T17:43:57.592Z,28.50
2018-11-28T17:46:26.651Z,30.52
2018-11-28T17:48:55.784Z,28.80
2018-11-28T17:51:25.372Z,29.87
2018-11-28T17:53:54.471Z,31.42
2018-11-28T17:56:23.720Z,30.50
2018-11-28T17:58:52.835Z,32.28
2018-11-28T18:01:21.959Z,33.15
2018-11-28T18:03:50.994Z,32.58
2018-11-28T18:06:20.177Z,35.75
2018-11-28T18:08:49.856Z,35.28
2018-11-28T18:11:19.132Z,36.55
2018-11-28T18:13:48.363Z,36.20
2018-11-28T18:16:17.736Z,35.15
2018-11-28T18:18:46.846Z,34.33
2018-11-28T18:21:16.225Z,35.58
2018-11-28T18:23:46.383Z,35.03
2018-11-28T18:26:16.206Z,35.75
2018-11-28T18:28:45.483Z,31.25
2018-11-28T18:31:14.576Z,34.50
2018-11-28T18:33:43.922Z,34.05
2018-11-28T18:36:13.177Z,34.25
2018-11-28T18:38:42.418Z,35.23
2018-11-28T18:41:11.580Z,34.20
2018-11-28T18:43:40.738Z,34.30
2018-11-28T18:46:09.864Z,35.73
2018-11-28T18:48:38.977Z,34.20
2018-11-28T18:51:09.708Z,36.50
2018-11-28T18:53:38.775Z,35.30
2018-11-28T18:56:08.018Z,37.40
2018-11-28T18:58:37.403Z,37.00
2018-11-28T19:01:07.082Z,37.60
2018-11-28T19:03:36.309Z,34.92
2018-11-28T19:06:05.478Z,38.75
2018-11-28T19:08:34.599Z,38.17
2018-11-28T19:11:03.952Z,38.83
2018-11-28T19:13:32.989Z,35.37
2018-11-28T19:16:02.268Z,32.53
2018-11-28T19:18:31.385Z,33.53
2018-11-28T19:21:00.448Z,37.38
2018-11-28T19:23:29.576Z,36.28
2018-11-28T19:25:58.840Z,34.98
2018-11-28T19:28:27.968Z,33.98
2018-11-28T19:30:57.966Z,35.95
2018-11-28T19:33:28.248Z,35.70
2018-11-28T19:35:58.759Z,35.03
2018-11-28T19:38:28.047Z,34.95
2018-11-28T19:41:02.284Z,33.10
2018-11-28T19:43:31.612Z,37.10
2018-11-28T19:46:00.656Z,35.98
2018-11-28T19:48:30.673Z,38.53
2018-11-28T19:51:00.603Z,42.58
2018-11-28T19:53:30.596Z,37.20
2018-11-28T19:55:59.687Z,37.23
2018-11-28T19:58:28.698Z,37.15
2018-11-28T20:00:58.047Z,38.08
2018-11-28T20:03:27.305Z,36.28
2018-11-28T20:05:56.491Z,37.80
2018-11-28T20:08:25.775Z,40.23
2018-11-28T20:10:55.863Z,41.42
2018-11-28T20:13:26.286Z,41.15
2018-11-28T20:15:56.109Z,39.90
2018-11-28T20:18:25.430Z,39.20
2018-11-28T20:20:55.216Z,38.75
2018-11-28T20:23:25.300Z,37.35
2018-11-28T20:25:55.310Z,36.17
2018-11-28T20:28:25.128Z,36.83
2018-11-28T20:30:55.360Z,37.08
2018-11-28T20:33:24.645Z,36.40
2018-11-28T20:35:54.793Z,40.28
2018-11-28T20:38:26.763Z,38.40
2018-11-28T20:40:55.920Z,37.28
2018-11-28T20:43:26.095Z,36.77
2018-11-28T20:45:56.740Z,38.92
2018-11-28T20:48:26.035Z,39.67
2018-11-28T20:50:55.139Z,38.55
2018-11-28T20:53:24.202Z,37.83
2018-11-28T20:55:53.823Z,37.25
2018-11-28T20:58:23.311Z,37.83
2018-11-28T21:00:52.656Z,37.42
2018-11-28T21:03:21.910Z,35.00
2018-11-28T21:05:51.139Z,34.70
2018-11-28T21:08:20.430Z,32.90
2018-11-28T21:10:49.811Z,33.65
2018-11-28T21:13:19.042Z,34.18
2018-11-28T21:15:48.332Z,34.18
2018-11-28T21:18:17.651Z,32.40
2018-11-28T21:20:47.203Z,33.73
2018-11-28T21:23:17.672Z,36.30
2018-11-28T21:25:46.954Z,43.92
2018-11-28T21:28:16.047Z,39.23
2018-11-28T21:30:45.163Z,33.23
2018-11-28T21:33:14.847Z,34.23
2018-11-28T21:35:48.679Z,34.23
2018-11-28T21:38:17.839Z,32.28
2018-11-28T21:40:47.183Z,35.20
2018-11-28T21:43:16.555Z,33.05
2018-11-28T21:45:45.879Z,32.95
2018-11-28T21:48:14.966Z,32.13
2018-11-28T21:50:44.187Z,35.03
2018-11-28T21:53:13.378Z,34.43
2018-11-28T21:55:42.530Z,33.75
2018-11-28T21:58:11.674Z,33.83
2018-11-28T22:00:40.835Z,35.05
2018-11-28T22:03:09.847Z,34.25
2018-11-28T22:05:38.962Z,35.68
2018-11-28T22:08:08.235Z,34.27
2018-11-28T22:10:37.402Z,33.73
2018-11-28T22:13:06.638Z,31.68
2018-11-28T22:15:35.703Z,34.08
2018-11-28T22:18:04.922Z,34.80
2018-11-28T22:20:34.027Z,35.83
2018-11-28T22:23:03.186Z,35.13
2018-11-28T22:25:32.311Z,33.30
2018-11-28T22:28:02.110Z,34.00
2018-11-28T22:30:31.339Z,35.40
2018-11-28T22:33:00.608Z,31.33
2018-11-28T22:35:29.823Z,31.20
2018-11-28T22:37:59.015Z,30.72
2018-11-28T22:40:29.323Z,32.55
2018-11-28T22:42:58.642Z,31.57
2018-11-28T22:45:28.859Z,32.45
2018-11-28T22:47:57.926Z,32.98
2018-11-28T22:50:27.037Z,34.90
2018-11-28T22:52:56.166Z,34.20
2018-11-28T22:55:25.323Z,32.55
2018-11-28T22:57:54.435Z,32.33
2018-11-28T23:00:29.251Z,37.10
2018-11-28T23:03:02.682Z,34.35
2018-11-28T23:05:34.775Z,36.83
2018-11-28T23:08:05.002Z,35.45
2018-11-28T23:10:34.151Z,35.25
2018-11-28T23:13:03.222Z,32.80
2018-11-28T23:15:32.346Z,34.90
2018-11-28T23:18:01.610Z,36.08
2018-11-28T23:20:30.834Z,35.65
2018-11-28T23:22:59.902Z,33.02
2018-11-28T23:25:29.039Z,32.75
2018-11-28T23:27:58.086Z,34.63
2018-11-28T23:30:27.321Z,34.13
2018-11-28T23:32:56.599Z,34.45
2018-11-28T23:35:26.006Z,34.27
2018-11-28T23:37:55.319Z,35.35
2018-11-28T23:40:27.143Z,34.38
2018-11-28T23:42:56.994Z,36.80
2018-11-28T23:45:26.679Z,35.00
2018-11-28T23:47:55.803Z,35.00
2018-11-28T23:50:25.834Z,34.65
2018-11-28T23:52:55.932Z,35.70
2018-11-28T23:55:26.166Z,34.13
2018-11-28T23:57:55.455Z,38.65
